createdAt,value
2023-05-04T00:01:40.541Z,102189.31
2023-05-04T00:04:10.337Z,102199.66
2023-05-04T00:06:39.838Z,102194.31
2023-05-04T00:09:09.460Z,102193.72
2023-05-04T00:11:39.895Z,102191.28
2023-05-04T00:14:11.869Z,102189.38
2023-05-04T00:16:41.451Z,102193.09
2023-05-04T00:19:11.131Z,102185.06
2023-05-04T00:21:40.969Z,102186.06
2023-05-04T00:24:10.560Z,102182.59
2023-05-04T00:26:40.072Z,102180.88
2023-05-04T00:29:12.044Z,102177.03
2023-05-04T00:31:41.496Z,102167.84
2023-05-04T00:34:10.911Z,102164.69
2023-05-04T00:36:40.467Z,102174.81
2023-05-04T00:39:10.136Z,102172.47
2023-05-04T00:41:39.873Z,102177.03
2023-05-04T00:44:11.828Z,102182.19
2023-05-04T00:46:41.635Z,102178.00
2023-05-04T00:49:11.322Z,102176.00
2023-05-04T00:51:41.028Z,102181.34
2023-05-04T00:54:10.427Z,102164.97
2023-05-04T00:56:43.355Z,102161.75
2023-05-04T00:59:15.346Z,102162.59
2023-05-04T01:01:45.107Z,102160.13
2023-05-04T01:04:15.023Z,102159.72
2023-05-04T01:06:50.527Z,102158.88
2023-05-04T01:09:26.338Z,102152.00
2023-05-04T01:12:03.339Z,102149.25
2023-05-04T01:14:36.704Z,102154.00
2023-05-04T01:17:07.832Z,102151.69
2023-05-04T01:19:38.038Z,102157.91
2023-05-04T01:22:09.933Z,102162.03
2023-05-04T01:24:39.509Z,102162.06
2023-05-04T01:27:13.961Z,102156.06
2023-05-04T01:29:48.077Z,102154.38
2023-05-04T01:32:18.334Z,102147.56
2023-05-04T01:34:47.914Z,102145.94
2023-05-04T01:37:19.844Z,102158.41
2023-05-04T01:39:49.189Z,102157.13
2023-05-04T01:42:18.530Z,102156.72
2023-05-04T01:44:47.972Z,102145.19
2023-05-04T01:47:17.338Z,102141.75
2023-05-04T01:49:46.697Z,102144.63
2023-05-04T01:52:16.109Z,102139.94
2023-05-04T01:54:48.065Z,102137.50
2023-05-04T01:57:17.552Z,102140.16
2023-05-04T01:59:46.949Z,102143.06
2023-05-04T02:02:16.379Z,102142.06
2023-05-04T02:04:46.265Z,102139.78
2023-05-04T02:07:15.645Z,102142.09
2023-05-04T02:09:44.995Z,102132.16
2023-05-04T02:12:16.901Z,102130.94
2023-05-04T02:14:46.312Z,102131.31
2023-05-04T02:17:15.640Z,102139.84
2023-05-04T02:19:45.004Z,102132.81
2023-05-04T02:22:14.410Z,102128.44
2023-05-04T02:24:44.525Z,102117.75
2023-05-04T02:27:13.969Z,102124.16
2023-05-04T02:29:46.021Z,102120.44
2023-05-04T02:32:15.399Z,102113.81
2023-05-04T02:34:44.703Z,102110.72
2023-05-04T02:37:14.050Z,102114.41
2023-05-04T02:39:43.359Z,102117.72
2023-05-04T02:42:12.685Z,102116.72
2023-05-04T02:44:42.034Z,102113.97
2023-05-04T02:47:13.966Z,102124.38
2023-05-04T02:49:43.543Z,102116.88
2023-05-04T02:52:13.374Z,102119.38
2023-05-04T02:54:42.690Z,102112.78
2023-05-04T02:57:11.985Z,102108.59
2023-05-04T02:59:41.399Z,102105.31
2023-05-04T03:02:11.545Z,102108.00
2023-05-04T03:04:43.536Z,102104.72
2023-05-04T03:07:13.104Z,102099.72
2023-05-04T03:09:42.409Z,102097.47
2023-05-04T03:12:11.709Z,102098.91
2023-05-04T03:14:41.023Z,102092.91
2023-05-04T03:17:10.656Z,102096.44
2023-05-04T03:19:39.979Z,102096.84
2023-05-04T03:22:12.003Z,102089.63
2023-05-04T03:24:41.418Z,102092.69
2023-05-04T03:27:10.751Z,102089.81
2023-05-04T03:29:40.097Z,102087.97
2023-05-04T03:32:09.634Z,102085.69
2023-05-04T03:34:39.086Z,102090.25
2023-05-04T03:37:08.489Z,102082.19
2023-05-04T03:39:40.645Z,102089.00
2023-05-04T03:42:09.998Z,102086.91
2023-05-04T03:44:39.299Z,102091.88
2023-05-04T03:47:08.921Z,102088.75
2023-05-04T03:49:38.463Z,102091.88
2023-05-04T03:52:07.975Z,102091.25
2023-05-04T03:54:39.885Z,102090.41
2023-05-04T03:57:09.201Z,102090.59
2023-05-04T03:59:38.556Z,102082.34
2023-05-04T04:02:08.038Z,102081.31
2023-05-04T04:04:37.648Z,102078.81
2023-05-04T04:07:07.239Z,102071.53
2023-05-04T04:09:36.813Z,102070.97
2023-05-04T04:12:09.030Z,102075.31
2023-05-04T04:14:38.559Z,102067.03
2023-05-04T04:17:08.085Z,102068.91
2023-05-04T04:19:37.476Z,102074.72
2023-05-04T04:22:06.801Z,102074.09
2023-05-04T04:24:36.108Z,102075.94
2023-05-04T04:27:08.125Z,102076.56
2023-05-04T04:29:37.750Z,102080.53
2023-05-04T04:32:07.616Z,102078.03
2023-05-04T04:34:37.376Z,102087.13
2023-05-04T04:37:06.800Z,102085.47
2023-05-04T04:39:36.173Z,102091.25
2023-05-04T04:42:08.794Z,102085.06
2023-05-04T04:44:39.345Z,102090.84
2023-05-04T04:47:09.455Z,102092.28
2023-05-04T04:49:38.847Z,102087.13
2023-05-04T04:52:08.417Z,102080.72
2023-05-04T04:54:37.761Z,102086.50
2023-05-04T04:57:09.994Z,102092.31
2023-05-04T04:59:39.549Z,102093.75
2023-05-04T05:02:09.694Z,102097.88
2023-05-04T05:04:42.070Z,102090.22
2023-05-04T05:07:11.647Z,102091.06
2023-05-04T05:09:41.070Z,102090.00
2023-05-04T05:12:13.023Z,102086.50
2023-05-04T05:14:42.355Z,102094.97
2023-05-04T05:17:11.864Z,102101.00
2023-05-04T05:19:42.333Z,102093.94
2023-05-04T05:22:11.746Z,102101.00
2023-05-04T05:24:41.253Z,102106.56
2023-05-04T05:27:13.153Z,102102.44
2023-05-04T05:29:42.824Z,102102.63
2023-05-04T05:32:12.167Z,102106.97
2023-05-04T05:34:42.557Z,102105.09
2023-05-04T05:37:11.943Z,102102.00
2023-05-04T05:39:41.235Z,102107.19
2023-05-04T05:42:13.201Z,102107.63
2023-05-04T05:44:42.519Z,102108.63
2023-05-04T05:47:11.921Z,102102.44
2023-05-04T05:49:42.185Z,102102.41
2023-05-04T05:52:13.130Z,102105.34
2023-05-04T05:54:42.515Z,102107.19
2023-05-04T05:57:14.664Z,102108.63
2023-05-04T05:59:44.851Z,102108.00
2023-05-04T06:02:15.025Z,102103.25
2023-05-04T06:04:45.164Z,102105.31
2023-05-04T06:07:14.700Z,102103.03
2023-05-04T06:09:44.370Z,102102.63
2023-05-04T06:12:17.273Z,102103.25
2023-05-04T06:14:48.048Z,102100.78
2023-05-04T06:17:17.513Z,102097.88
2023-05-04T06:19:50.754Z,102095.00
2023-05-04T06:22:20.607Z,102095.59
2023-05-04T06:24:58.130Z,102089.22
2023-05-04T06:27:33.462Z,102088.38
2023-05-04T06:30:03.824Z,102085.47
2023-05-04T06:32:33.509Z,102086.72
2023-05-04T06:35:03.031Z,102083.00
2023-05-04T06:37:32.474Z,102082.16
2023-05-04T06:40:02.132Z,102077.19
2023-05-04T06:42:35.341Z,102078.22
2023-05-04T06:45:04.976Z,102077.19
2023-05-04T06:47:34.313Z,102087.97
2023-05-04T06:50:03.792Z,102084.22
2023-05-04T06:52:33.313Z,102073.84
2023-05-04T06:55:02.667Z,102075.88
2023-05-04T06:57:34.990Z,102073.84
2023-05-04T07:00:05.793Z,102074.63
2023-05-04T07:02:35.938Z,102080.63
2023-05-04T07:05:05.900Z,102076.28
2023-05-04T07:07:35.327Z,102066.50
2023-05-04T07:10:04.782Z,102061.34
2023-05-04T07:12:36.886Z,102066.69
2023-05-04T07:15:06.963Z,102057.19
2023-05-04T07:17:36.813Z,102056.91
2023-05-04T07:20:08.540Z,102062.53
2023-05-04T07:22:38.188Z,102057.72
2023-05-04T07:25:08.720Z,102057.31
2023-05-04T07:27:43.899Z,102064.53
2023-05-04T07:30:14.015Z,102063.72
2023-05-04T07:32:43.947Z,102064.56
2023-05-04T07:35:13.390Z,102061.81
2023-05-04T07:37:42.923Z,102049.28
2023-05-04T07:40:14.810Z,102056.03
2023-05-04T07:42:46.811Z,102049.19
2023-05-04T07:45:17.025Z,102048.13
2023-05-04T07:47:46.467Z,102043.34
2023-05-04T07:50:17.011Z,102047.59
2023-05-04T07:52:47.876Z,102046.31
2023-05-04T07:55:17.296Z,102042.63
2023-05-04T07:57:49.201Z,102049.00
2023-05-04T08:00:19.971Z,102046.28
2023-05-04T08:02:49.770Z,102051.16
2023-05-04T08:05:19.152Z,102045.44
2023-05-04T08:07:49.512Z,102043.69
2023-05-04T08:10:18.953Z,102042.72
2023-05-04T08:12:51.054Z,102043.22
2023-05-04T08:15:20.406Z,102036.56
2023-05-04T08:17:49.720Z,102032.94
2023-05-04T08:20:19.527Z,102031.06
2023-05-04T08:22:50.024Z,102030.16
2023-05-04T08:25:19.742Z,102032.81
2023-05-04T08:27:51.944Z,102028.09
2023-05-04T08:30:21.381Z,102019.94
2023-05-04T08:32:53.175Z,102022.69
2023-05-04T08:35:25.934Z,102017.72
2023-05-04T08:37:55.297Z,102010.38
2023-05-04T08:40:24.956Z,101999.13
2023-05-04T08:42:56.940Z,102007.78
2023-05-04T08:45:27.396Z,101999.53
2023-05-04T08:47:56.968Z,101997.97
2023-05-04T08:50:26.667Z,101990.69
2023-05-04T08:52:56.107Z,101993.28
2023-05-04T08:55:25.569Z,101988.81
2023-05-04T08:57:58.171Z,101989.41
2023-05-04T09:00:28.440Z,101997.03
2023-05-04T09:02:59.856Z,101980.69
2023-05-04T09:05:29.777Z,101986.00
2023-05-04T09:07:59.621Z,101982.81
2023-05-04T09:10:29.771Z,101979.69
2023-05-04T09:13:01.849Z,101974.38
2023-05-04T09:15:31.682Z,101970.38
2023-05-04T09:18:03.010Z,101976.72
2023-05-04T09:20:33.421Z,101975.78
2023-05-04T09:23:07.081Z,101974.16
2023-05-04T09:25:37.017Z,101970.72
2023-05-04T09:28:08.964Z,101961.81
2023-05-04T09:30:38.358Z,101964.75
2023-05-04T09:33:07.772Z,101963.59
2023-05-04T09:35:37.159Z,101949.59
2023-05-04T09:38:07.499Z,101954.16
2023-05-04T09:40:41.172Z,101953.16
2023-05-04T09:43:13.988Z,101946.50
2023-05-04T09:45:44.214Z,101947.22
2023-05-04T09:48:21.090Z,101958.84
2023-05-04T09:50:52.450Z,101949.06
2023-05-04T09:53:24.938Z,101955.53
2023-05-04T09:56:07.296Z,101953.03
2023-05-04T09:58:40.452Z,101953.78
2023-05-04T10:01:09.823Z,101940.47
2023-05-04T10:03:39.335Z,101940.88
2023-05-04T10:06:09.343Z,101940.56
2023-05-04T10:08:40.292Z,101931.50
2023-05-04T10:11:10.244Z,101920.50
2023-05-04T10:13:42.924Z,101932.28
2023-05-04T10:16:21.438Z,101926.78
2023-05-04T10:19:10.818Z,101917.09
2023-05-04T10:21:51.556Z,101924.94
2023-05-04T10:24:42.343Z,101910.72
2023-05-04T10:27:15.039Z,101914.16
2023-05-04T10:29:51.965Z,101908.84
2023-05-04T10:32:22.549Z,101893.53
2023-05-04T10:34:52.337Z,101898.34
2023-05-04T10:37:25.032Z,101889.03
2023-05-04T10:39:56.226Z,101892.22
2023-05-04T10:42:25.601Z,101887.03
2023-05-04T10:44:58.583Z,101888.75
2023-05-04T10:47:33.229Z,101888.28
2023-05-04T10:50:07.226Z,101882.69
2023-05-04T10:52:48.526Z,101880.13
2023-05-04T10:55:20.078Z,101872.25
2023-05-04T10:57:51.031Z,101866.69
2023-05-04T11:00:23.892Z,101863.66
2023-05-04T11:02:53.293Z,101863.16
2023-05-04T11:05:22.663Z,101854.19
2023-05-04T11:07:53.504Z,101852.25
2023-05-04T11:10:24.938Z,101848.44
2023-05-04T11:12:54.492Z,101839.56
2023-05-04T11:15:26.764Z,101848.25
2023-05-04T11:17:56.410Z,101846.03
2023-05-04T11:20:27.061Z,101849.09
2023-05-04T11:22:57.348Z,101838.47
2023-05-04T11:25:30.361Z,101838.75
2023-05-04T11:28:01.223Z,101830.09
2023-05-04T11:30:37.928Z,101833.44
2023-05-04T11:33:14.496Z,101819.69
2023-05-04T11:35:45.441Z,101815.13
2023-05-04T11:38:21.005Z,101813.81
2023-05-04T11:40:51.575Z,101803.38
2023-05-04T11:43:21.257Z,101798.47
2023-05-04T11:45:56.005Z,101800.25
2023-05-04T11:48:25.568Z,101802.66
2023-05-04T11:50:55.297Z,101805.69
2023-05-04T11:53:24.793Z,101798.03
2023-05-04T11:55:57.057Z,101793.59
2023-05-04T11:58:27.856Z,101792.22
2023-05-04T12:01:04.125Z,101793.63
2023-05-04T12:03:52.014Z,101789.94
2023-05-04T12:06:33.075Z,101782.66
2023-05-04T12:09:07.428Z,101784.41
2023-05-04T12:11:38.540Z,101777.03
2023-05-04T12:14:10.300Z,101775.09
2023-05-04T12:16:43.333Z,101775.09
2023-05-04T12:19:14.057Z,101778.34
2023-05-04T12:21:52.510Z,101771.25
2023-05-04T12:24:24.039Z,101772.69
2023-05-04T12:26:53.597Z,101771.69
2023-05-04T12:29:23.017Z,101765.22
2023-05-04T12:31:54.983Z,101762.00
2023-05-04T12:34:24.356Z,101744.53
2023-05-04T12:36:53.999Z,101758.47
2023-05-04T12:39:24.169Z,101756.94
2023-05-04T12:41:53.654Z,101753.53
2023-05-04T12:44:23.128Z,101750.91
2023-05-04T12:46:55.074Z,101736.19
2023-05-04T12:49:24.915Z,101739.47
2023-05-04T12:51:54.591Z,101743.28
2023-05-04T12:54:23.955Z,101740.63
2023-05-04T12:56:53.541Z,101737.44
2023-05-04T12:59:23.652Z,101735.66
2023-05-04T13:01:55.568Z,101733.50
2023-05-04T13:04:24.900Z,101728.13
2023-05-04T13:06:54.513Z,101718.50
2023-05-04T13:09:23.824Z,101719.31
2023-05-04T13:11:54.117Z,101720.31
2023-05-04T13:14:23.422Z,101716.91
2023-05-04T13:16:55.392Z,101716.66
2023-05-04T13:19:24.794Z,101704.28
2023-05-04T13:21:54.111Z,101701.88
2023-05-04T13:24:23.704Z,101694.59
2023-05-04T13:26:53.033Z,101700.22
2023-05-04T13:29:22.351Z,101701.56
2023-05-04T13:31:51.743Z,101693.78
2023-05-04T13:34:23.976Z,101695.03
2023-05-04T13:36:53.422Z,101691.91
2023-05-04T13:39:25.624Z,101692.72
2023-05-04T13:41:55.073Z,101685.28
2023-05-04T13:44:24.400Z,101687.56
2023-05-04T13:46:53.764Z,101683.25
2023-05-04T13:49:25.749Z,101683.41
2023-05-04T13:51:55.058Z,101685.41
2023-05-04T13:54:24.412Z,101682.69
2023-05-04T13:56:54.528Z,101683.88
2023-05-04T13:59:23.868Z,101673.06
2023-05-04T14:01:53.378Z,101663.78
2023-05-04T14:04:26.424Z,101663.63
2023-05-04T14:06:57.732Z,101650.06
2023-05-04T14:09:28.653Z,101647.25
2023-05-04T14:11:58.840Z,101644.50
2023-05-04T14:14:28.181Z,101643.47
2023-05-04T14:16:57.613Z,101633.34
2023-05-04T14:19:30.222Z,101636.13
2023-05-04T14:21:59.542Z,101632.03
2023-05-04T14:24:29.645Z,101630.91
2023-05-04T14:26:59.185Z,101627.41
2023-05-04T14:29:29.870Z,101625.47
2023-05-04T14:32:00.304Z,101620.28
2023-05-04T14:34:32.782Z,101615.63
2023-05-04T14:37:02.132Z,101609.41
2023-05-04T14:39:31.578Z,101615.44
2023-05-04T14:42:01.055Z,101605.91
2023-05-04T14:44:30.461Z,101595.06
2023-05-04T14:46:59.772Z,101600.78
2023-05-04T14:52:04.743Z,101596.06
2023-05-04T14:54:34.041Z,101597.13
2023-05-04T14:57:03.521Z,101605.78
2023-05-04T14:59:32.832Z,101600.13
2023-05-04T15:02:03.072Z,101604.47
2023-05-04T15:04:35.291Z,101597.72
2023-05-04T15:07:05.792Z,101589.56
2023-05-04T15:09:35.730Z,101593.06
2023-05-04T15:12:05.097Z,101590.06
2023-05-04T15:14:34.429Z,101584.94
2023-05-04T15:17:03.802Z,101593.09
2023-05-04T15:19:35.814Z,101591.25
2023-05-04T15:22:05.124Z,101583.84
2023-05-04T15:24:34.626Z,101586.59
2023-05-04T15:27:04.647Z,101574.38
2023-05-04T15:29:34.381Z,101579.28
2023-05-04T15:32:04.309Z,101580.63
2023-05-04T15:34:36.267Z,101578.72
2023-05-04T15:37:05.678Z,101576.03
2023-05-04T15:39:35.091Z,101568.97
2023-05-04T15:42:04.613Z,101571.66
2023-05-04T15:44:34.009Z,101575.19
2023-05-04T15:47:05.349Z,101572.25
2023-05-04T15:49:37.731Z,101567.59
2023-05-04T15:52:07.747Z,101559.97
2023-05-04T15:54:37.038Z,101565.66
2023-05-04T15:57:08.001Z,101551.25
2023-05-04T15:59:37.322Z,101549.06
2023-05-04T16:02:08.245Z,101552.06
2023-05-04T16:04:40.143Z,101537.66
2023-05-04T16:07:09.740Z,101540.38
2023-05-04T16:09:39.083Z,101530.84
2023-05-04T16:12:09.318Z,101529.50
2023-05-04T16:14:38.820Z,101529.19
2023-05-04T16:17:08.213Z,101521.03
2023-05-04T16:19:40.244Z,101530.81
2023-05-04T16:22:09.560Z,101527.84
2023-05-04T16:24:38.977Z,101531.91
2023-05-04T16:27:09.192Z,101523.75
2023-05-04T16:29:38.570Z,101522.38
2023-05-04T16:32:08.507Z,101520.78
2023-05-04T16:34:40.396Z,101518.91
2023-05-04T16:37:10.985Z,101515.06
2023-05-04T16:39:40.785Z,101517.53
2023-05-04T16:42:10.135Z,101508.00
2023-05-04T16:44:39.439Z,101507.44
2023-05-04T16:47:08.757Z,101504.19
2023-05-04T16:49:41.182Z,101502.53
2023-05-04T16:52:10.490Z,101502.84
2023-05-04T16:54:39.844Z,101490.84
2023-05-04T16:57:09.146Z,101503.09
2023-05-04T16:59:38.573Z,101495.19
2023-05-04T17:02:08.843Z,101489.50
2023-05-04T17:04:40.820Z,101502.56
2023-05-04T17:07:11.033Z,101495.75
2023-05-04T17:09:41.277Z,101493.59
2023-05-04T17:12:10.687Z,101500.13
2023-05-04T17:14:40.073Z,101494.41
2023-05-04T17:17:09.429Z,101502.00
2023-05-04T17:19:41.926Z,101492.22
2023-05-04T17:22:11.818Z,101494.69
2023-05-04T17:24:43.505Z,101498.22
2023-05-04T17:27:14.413Z,101503.09
2023-05-04T17:29:44.203Z,101500.13
2023-05-04T17:32:13.595Z,101496.31
2023-05-04T17:34:45.560Z,101489.50
2023-05-04T17:37:14.900Z,101497.94
2023-05-04T17:39:44.633Z,101494.41
2023-05-04T17:42:15.977Z,101491.44
2023-05-04T17:44:45.332Z,101499.59
2023-05-04T17:47:14.660Z,101492.22
2023-05-04T17:49:47.553Z,101494.13
2023-05-04T17:52:17.052Z,101497.13
2023-05-04T17:54:46.427Z,101495.50
2023-05-04T17:57:16.738Z,101503.09
2023-05-04T17:59:47.310Z,101500.28
2023-05-04T18:02:16.750Z,101495.34
2023-05-04T18:04:49.162Z,101492.28
2023-05-04T18:07:18.452Z,101503.22
2023-05-04T18:09:47.741Z,101503.81
2023-05-04T18:12:17.201Z,101506.63
2023-05-04T18:14:46.508Z,101504.69
2023-05-04T18:17:15.805Z,101498.66
2023-05-04T18:19:45.181Z,101509.56
2023-05-04T18:22:18.004Z,101509.41
2023-05-04T18:24:49.754Z,101503.59
2023-05-04T18:27:19.483Z,101509.97
2023-05-04T18:29:48.824Z,101514.53
2023-05-04T18:32:18.267Z,101510.00
2023-05-04T18:34:51.688Z,101519.00
2023-05-04T18:37:23.896Z,101522.75
2023-05-04T18:39:53.266Z,101521.50
2023-05-04T18:42:22.718Z,101520.97
2023-05-04T18:44:53.535Z,101533.16
2023-05-04T18:47:23.060Z,101534.69
2023-05-04T18:49:53.239Z,101536.66
2023-05-04T18:52:25.567Z,101539.22
2023-05-04T18:54:54.856Z,101541.09
2023-05-04T18:57:24.172Z,101541.81
2023-05-04T18:59:53.561Z,101541.94
2023-05-04T19:02:22.922Z,101543.69
2023-05-04T19:04:52.307Z,101555.16
2023-05-04T19:07:21.620Z,101552.16
2023-05-04T19:09:53.527Z,101546.03
2023-05-04T19:12:22.910Z,101550.97
2023-05-04T19:14:52.981Z,101550.75
2023-05-04T19:17:22.838Z,101549.59
2023-05-04T19:19:52.168Z,101548.50
2023-05-04T19:22:21.553Z,101558.84
2023-05-04T19:24:55.573Z,101555.34
2023-05-04T19:27:25.217Z,101552.44
2023-05-04T19:29:56.281Z,101552.97
2023-05-04T19:32:25.817Z,101550.91
2023-05-04T19:34:55.346Z,101557.69
2023-05-04T19:37:24.773Z,101560.38
2023-05-04T19:39:57.931Z,101558.19
2023-05-04T19:42:28.760Z,101565.34
2023-05-04T19:44:58.084Z,101566.69
2023-05-04T19:47:27.881Z,101563.38
2023-05-04T19:49:57.595Z,101556.91
2023-05-04T19:52:26.944Z,101561.78
2023-05-04T19:54:58.883Z,101555.53
2023-05-04T19:57:28.488Z,101551.44
2023-05-04T19:59:58.525Z,101548.25
2023-05-04T20:02:28.201Z,101553.81
2023-05-04T20:04:57.624Z,101552.41
2023-05-04T20:07:27.336Z,101554.06
2023-05-04T20:09:59.364Z,101553.66
2023-05-04T20:12:29.219Z,101557.16
2023-05-04T20:14:58.779Z,101552.38
2023-05-04T20:17:28.235Z,101556.13
2023-05-04T20:19:57.594Z,101557.50
2023-05-04T20:22:26.948Z,101550.47
2023-05-04T20:24:58.878Z,101552.47
2023-05-04T20:27:28.324Z,101553.44
2023-05-04T20:29:57.696Z,101548.34
2023-05-04T20:32:27.782Z,101552.34
2023-05-04T20:34:57.136Z,101545.94
2023-05-04T20:37:26.594Z,101548.88
2023-05-04T20:39:56.727Z,101555.13
2023-05-04T20:42:29.585Z,101547.56
2023-05-04T20:44:59.079Z,101553.47
2023-05-04T20:47:28.702Z,101545.63
2023-05-04T20:49:58.052Z,101545.19
2023-05-04T20:52:27.695Z,101549.28
2023-05-04T20:54:57.428Z,101539.25
2023-05-04T20:57:29.481Z,101547.19
2023-05-04T20:59:59.115Z,101543.34
2023-05-04T21:02:28.659Z,101535.16
2023-05-04T21:04:58.053Z,101534.66
2023-05-04T21:07:27.797Z,101539.41
2023-05-04T21:09:59.278Z,101544.22
2023-05-04T21:12:31.225Z,101528.06
2023-05-04T21:15:00.647Z,101523.38
2023-05-04T21:17:29.981Z,101527.34
2023-05-04T21:19:59.311Z,101519.78
2023-05-04T21:22:29.808Z,101521.38
2023-05-04T21:24:59.115Z,101523.19
2023-05-04T21:27:31.027Z,101521.69
2023-05-04T21:30:00.779Z,101525.38
2023-05-04T21:32:30.113Z,101516.72
2023-05-04T21:34:59.460Z,101519.41
2023-05-04T21:37:28.799Z,101511.09
2023-05-04T21:39:58.487Z,101518.16
2023-05-04T21:42:27.984Z,101517.53
2023-05-04T21:45:00.292Z,101520.19
2023-05-04T21:47:29.796Z,101516.16
2023-05-04T21:49:59.172Z,101523.16
2023-05-04T21:52:28.556Z,101519.66
2023-05-04T21:54:57.894Z,101523.50
2023-05-04T21:57:27.700Z,101516.44
2023-05-04T21:59:57.049Z,101520.50
2023-05-04T22:02:29.005Z,101516.09
2023-05-04T22:04:58.520Z,101520.75
2023-05-04T22:07:27.819Z,101521.31
2023-05-04T22:09:57.165Z,101524.59
2023-05-04T22:12:26.508Z,101525.47
2023-05-04T22:14:55.862Z,101528.06
2023-05-04T22:17:25.218Z,101525.09
2023-05-04T22:19:57.145Z,101530.25
2023-05-04T22:22:26.452Z,101526.88
2023-05-04T22:24:56.031Z,101525.84
2023-05-04T22:27:27.106Z,101527.56
2023-05-04T22:29:56.436Z,101527.81
2023-05-04T22:32:26.076Z,101534.41
2023-05-04T22:34:58.025Z,101536.25
2023-05-04T22:37:27.346Z,101530.97
2023-05-04T22:39:56.812Z,101534.94
2023-05-04T22:42:26.138Z,101530.78
2023-05-04T22:44:55.615Z,101542.66
2023-05-04T22:47:25.111Z,101543.88
2023-05-04T22:49:59.643Z,101545.75
2023-05-04T22:52:29.159Z,101548.72
2023-05-04T22:54:58.562Z,101554.25
2023-05-04T22:57:27.870Z,101544.88
2023-05-04T22:59:57.221Z,101555.88
2023-05-04T23:02:26.864Z,101547.22
2023-05-04T23:04:59.761Z,101544.25
2023-05-04T23:07:29.138Z,101546.09
2023-05-04T23:09:58.501Z,101542.91
2023-05-04T23:12:29.746Z,101544.72
2023-05-04T23:14:59.230Z,101542.34
2023-05-04T23:17:28.626Z,101536.31
2023-05-04T23:20:00.618Z,101535.69
2023-05-04T23:22:29.961Z,101540.38
2023-05-04T23:24:59.293Z,101538.69
2023-05-04T23:27:28.610Z,101535.56
2023-05-04T23:29:57.957Z,101532.50
2023-05-04T23:32:27.513Z,101536.25
2023-05-04T23:34:56.990Z,101534.00
2023-05-04T23:37:29.316Z,101533.97
2023-05-04T23:39:58.726Z,101533.69
2023-05-04T23:42:29.063Z,101531.59
2023-05-04T23:44:58.722Z,101532.94
2023-05-04T23:47:28.279Z,101533.97
2023-05-04T23:49:57.820Z,101532.16
2023-05-04T23:52:29.973Z,101526.53
2023-05-04T23:54:59.393Z,101523.00
2023-05-04T23:57:28.860Z,101517.41
2023-05-04T23:59:58.285Z,101531.50
